Time;durP1;ratioP1;P1;durP2;ratioP2;P2;SDS_P1;SDS_P2;PMS_P1;PMS_P2;Temp;Humidity;BMP_temperature;BMP_pressure;BME280_temperature;BME280_humidity;BME280_pressure;Samples;Min_cycle;Max_cycle;Signal;HPM_P1;HPM_P2
2021/09/11 00:00:46;;;;;;;9.65;5.57;;;;;;;13.94;94.14;99893.00;5008669;28;20065;-61
2021/09/11 00:03:12;;;;;;;15.45;6.60;;;;;;;13.93;94.03;99893.06;5030502;28;20513;-63
2021/09/11 00:05:38;;;;;;;14.88;6.47;;;;;;;13.95;93.71;99894.72;5028691;28;20033;-65
2021/09/11 00:08:04;;;;;;;14.55;5.88;;;;;;;13.94;93.66;99893.00;5010283;28;20501;-64
2021/09/11 00:10:30;;;;;;;10.82;6.47;;;;;;;13.93;92.91;99891.31;5019705;28;20487;-63
2021/09/11 00:12:56;;;;;;;15.30;6.53;;;;;;;13.92;92.56;99887.00;5030775;28;20052;-62
2021/09/11 00:15:22;;;;;;;15.02;6.07;;;;;;;13.89;92.03;99879.31;5031288;28;20046;-62
2021/09/11 00:17:48;;;;;;;11.82;6.50;;;;;;;13.78;91.44;99872.84;5030906;28;20051;-60
2021/09/11 00:20:14;;;;;;;16.10;7.13;;;;;;;13.81;91.28;99878.81;5029656;28;20543;-61
2021/09/11 00:22:40;;;;;;;13.15;6.70;;;;;;;13.77;91.47;99882.44;5030311;28;20049;-62
2021/09/11 00:25:06;;;;;;;14.20;6.93;;;;;;;13.74;92.17;99879.13;5030606;28;20045;-62
2021/09/11 00:27:32;;;;;;;16.73;7.47;;;;;;;13.73;92.23;99888.72;5030019;28;20041;-59
2021/09/11 00:29:58;;;;;;;16.10;7.47;;;;;;;13.74;92.25;99885.22;5029552;28;20467;-56
2021/09/11 00:32:24;;;;;;;15.43;7.82;;;;;;;13.76;92.08;99890.38;5031250;28;20124;-53
2021/09/11 00:34:49;;;;;;;15.18;7.82;;;;;;;13.80;92.29;99891.94;5030670;28;20183;-55
2021/09/11 00:37:15;;;;;;;18.05;8.10;;;;;;;13.83;92.16;99887.41;5030086;28;20076;-54
2021/09/11 00:39:41;;;;;;;15.10;8.30;;;;;;;13.86;92.31;99894.28;5030790;28;20547;-57
2021/09/11 00:42:07;;;;;;;17.63;8.38;;;;;;;13.87;92.11;99899.41;5030798;28;20052;-56
2021/09/11 00:44:32;;;;;;;14.20;8.20;;;;;;;13.90;91.46;99901.06;5028250;28;20505;-54
2021/09/11 00:46:58;;;;;;;16.95;8.95;;;;;;;13.93;90.69;99899.16;5031090;28;20128;-54
2021/09/11 00:49:24;;;;;;;17.00;9.00;;;;;;;13.92;90.54;99894.84;5029774;28;20431;-55
2021/09/11 00:51:49;;;;;;;16.60;9.57;;;;;;;13.89;90.83;99899.34;5030002;28;20045;-57
2021/09/11 00:54:16;;;;;;;21.05;8.75;;;;;;;13.88;91.27;99897.66;5029911;28;20136;-54
2021/09/11 00:56:41;;;;;;;17.42;9.02;;;;;;;13.84;91.39;99894.34;5029452;28;20187;-55
2021/09/11 00:59:07;;;;;;;16.65;8.40;;;;;;;13.80;91.53;99892.78;5030323;28;20560;-55
2021/09/11 01:01:33;;;;;;;17.25;8.57;;;;;;;13.82;91.70;99901.38;5029307;28;20038;-56
2021/09/11 01:03:58;;;;;;;17.10;9.82;;;;;;;13.80;91.76;99898.00;5029973;28;20052;-53
2021/09/11 01:06:24;;;;;;;19.35;9.38;;;;;;;13.78;92.03;99901.59;5021978;28;20048;-53
2021/09/11 01:08:52;;;;;;;18.85;8.80;;;;;;;13.78;92.60;99899.81;5058520;28;20045;-59
2021/09/11 01:11:18;;;;;;;17.63;9.32;;;;;;;13.76;93.19;99893.84;5028693;28;20043;-60
2021/09/11 01:13:45;;;;;;;19.90;8.90;;;;;;;13.77;92.98;99892.03;5029627;28;20468;-59
2021/09/11 01:16:11;;;;;;;21.42;8.85;;;;;;;13.68;92.91;99879.41;5045494;28;20049;-59
2021/09/11 01:18:37;;;;;;;15.38;8.60;;;;;;;13.79;92.12;99891.06;5030009;28;20037;-59
2021/09/11 01:21:03;;;;;;;16.90;8.90;;;;;;;13.78;91.93;99892.00;5028413;28;20072;-59
2021/09/11 01:23:31;;;;;;;18.67;8.45;;;;;;;13.84;91.69;99894.34;5028884;28;20128;-59
2021/09/11 01:25:57;;;;;;;17.83;8.48;;;;;;;13.85;91.29;99901.25;5029835;28;20037;-59
2021/09/11 01:28:23;;;;;;;16.25;9.43;;;;;;;13.89;91.41;99904.59;5030071;28;20041;-58
2021/09/11 01:30:48;;;;;;;18.30;8.07;;;;;;;13.93;91.24;99901.75;5030392;28;20128;-57
2021/09/11 01:33:14;;;;;;;17.58;8.65;;;;;;;13.97;91.20;99905.09;5029472;28;20041;-56
2021/09/11 01:35:40;;;;;;;14.77;8.38;;;;;;;13.99;91.49;99905.88;5028281;28;20128;-57
2021/09/11 01:38:06;;;;;;;15.85;8.15;;;;;;;13.93;91.27;99898.28;5029390;28;20524;-58
2021/09/11 01:40:32;;;;;;;14.90;8.20;;;;;;;13.97;90.65;99902.50;5030264;28;20095;-57
2021/09/11 01:42:58;;;;;;;13.70;8.25;;;;;;;13.91;90.58;99890.53;5027809;28;20045;-59
2021/09/11 01:45:23;;;;;;;17.17;8.10;;;;;;;13.89;90.46;99899.34;5029918;28;20429;-58
2021/09/11 01:47:51;;;;;;;16.70;8.23;;;;;;;13.77;90.39;99887.66;5029492;28;20416;-58
2021/09/11 01:50:19;;;;;;;17.40;8.57;;;;;;;13.79;90.65;99896.31;5028767;28;20520;-56
2021/09/11 01:52:44;;;;;;;13.52;8.10;;;;;;;13.75;90.90;99886.91;5029410;28;20064;-58
2021/09/11 01:55:12;;;;;;;16.75;7.97;;;;;;;13.74;91.02;99893.03;5029112;28;20767;-54
2021/09/11 01:57:38;;;;;;;17.77;8.13;;;;;;;13.73;91.01;99893.09;5029647;28;20570;-55
2021/09/11 02:00:12;;;;;;;13.38;7.63;;;;;;;13.72;91.02;99892.25;5029722;28;20069;-54
2021/09/11 02:02:38;;;;;;;15.65;9.00;;;;;;;13.70;90.85;99894.09;5028485;28;20065;-58
2021/09/11 02:05:05;;;;;;;17.48;8.25;;;;;;;13.68;90.40;99890.69;5027813;28;20045;-54
2021/09/11 02:07:30;;;;;;;16.50;8.25;;;;;;;13.46;90.56;99862.03;5025978;28;20075;-57
2021/09/11 02:09:56;;;;;;;16.35;8.50;;;;;;;13.52;90.79;99880.06;5029675;28;20069;-56
2021/09/11 02:12:22;;;;;;;15.05;7.97;;;;;;;13.52;91.24;99894.88;5029273;28;20171;-58
2021/09/11 02:14:47;;;;;;;20.75;8.68;;;;;;;13.40;91.61;99867.53;5060290;28;20049;-55
2021/09/11 02:17:13;;;;;;;17.77;8.73;;;;;;;13.44;92.48;99894.38;5029588;28;20045;-58
2021/09/11 02:19:39;;;;;;;16.02;8.68;;;;;;;13.38;92.70;99890.25;5060551;28;20433;-58
2021/09/11 02:22:06;;;;;;;16.08;9.23;;;;;;;13.14;92.89;99866.00;5029381;28;20048;-59
2021/09/11 02:24:32;;;;;;;16.55;8.75;;;;;;;13.25;93.32;99891.69;5029736;28;20068;-59
2021/09/11 02:26:58;;;;;;;16.58;8.40;;;;;;;13.20;93.78;99890.16;5027827;28;20489;-57
2021/09/11 02:29:24;;;;;;;21.17;9.45;;;;;;;13.13;94.31;99895.66;5028944;28;20038;-58
2021/09/11 02:31:52;;;;;;;20.08;8.82;;;;;;;13.10;95.05;99893.13;5029721;28;20103;-58
2021/09/11 02:34:18;;;;;;;23.40;9.13;;;;;;;12.99;95.43;99884.03;5028085;28;20048;-51
2021/09/11 02:36:44;;;;;;;19.40;9.80;;;;;;;13.04;95.60;99902.97;5029032;28;20041;-56
2021/09/11 02:39:09;;;;;;;15.27;8.65;;;;;;;12.98;96.09;99895.41;5029106;28;20061;-59
2021/09/11 02:41:35;;;;;;;15.32;8.38;;;;;;;12.95;96.43;99901.59;5029306;28;20053;-60
2021/09/11 02:44:02;;;;;;;18.83;8.88;;;;;;;12.92;97.07;99895.66;5027270;28;20041;-57
2021/09/11 02:46:32;;;;;;;14.80;9.00;;;;;;;12.93;97.51;99889.50;5028180;28;20080;-53
2021/09/11 02:49:01;;;;;;;16.58;8.90;;;;;;;12.91;97.33;99892.19;5027947;28;20053;-54
2021/09/11 02:51:27;;;;;;;15.65;8.85;;;;;;;12.90;97.55;99884.44;5029638;28;20041;-60
2021/09/11 02:53:53;;;;;;;21.63;8.73;;;;;;;12.89;98.10;99899.22;5031085;28;20447;-55
2021/09/11 02:56:19;;;;;;;17.95;9.38;;;;;;;12.90;98.70;99889.66;5032538;28;20044;-55
2021/09/11 02:58:45;;;;;;;15.20;8.45;;;;;;;12.91;99.02;99889.59;5033322;28;20513;-55
2021/09/11 03:01:10;;;;;;;16.77;8.75;;;;;;;12.90;99.22;99884.44;5031193;28;20029;-58
2021/09/11 03:03:37;;;;;;;17.70;8.75;;;;;;;12.89;99.22;99888.78;5032765;28;20531;-59
2021/09/11 03:06:02;;;;;;;13.38;8.18;;;;;;;12.77;99.46;99859.75;5028307;28;20042;-58
2021/09/11 03:08:28;;;;;;;19.38;8.98;;;;;;;12.94;99.31;99899.03;5032184;28;20048;-58
2021/09/11 03:10:54;;;;;;;16.98;9.13;;;;;;;12.93;99.49;99892.13;5031637;28;20037;-54
2021/09/11 03:13:20;;;;;;;26.98;9.60;;;;;;;12.96;99.61;99895.47;5031350;28;20049;-55
2021/09/11 03:15:46;;;;;;;15.77;9.18;;;;;;;12.95;98.81;99883.31;5031836;28;20045;-55
2021/09/11 03:18:11;;;;;;;16.25;8.55;;;;;;;13.10;98.43;99897.50;5031103;28;20128;-53
2021/09/11 03:20:37;;;;;;;15.63;8.57;;;;;;;13.19;98.11;99898.94;5031274;28;20037;-58
2021/09/11 03:23:06;;;;;;;16.67;8.65;;;;;;;13.09;97.54;99869.69;5030995;28;20041;-61
2021/09/11 03:25:32;;;;;;;16.25;8.82;;;;;;;13.28;97.40;99899.41;5032922;28;20041;-57
2021/09/11 03:27:58;;;;;;;17.38;8.55;;;;;;;13.30;96.78;99894.94;5030373;28;20034;-59
2021/09/11 03:30:24;;;;;;;17.10;8.73;;;;;;;13.47;96.44;99902.06;5031829;28;20041;-59
2021/09/11 03:32:50;;;;;;;18.02;8.40;;;;;;;13.52;96.25;99900.97;5031415;28;20536;-58
2021/09/11 03:35:16;;;;;;;21.50;9.00;;;;;;;13.50;95.60;99891.50;5030560;28;20456;-56
2021/09/11 03:37:42;;;;;;;21.33;11.18;;;;;;;13.62;94.85;99904.03;5032162;28;20053;-56
2021/09/11 03:40:09;;;;;;;16.08;9.20;;;;;;;13.68;94.17;99901.16;5030332;28;20033;-57
2021/09/11 03:42:35;;;;;;;15.00;8.65;;;;;;;13.72;93.38;99896.63;5032358;28;20588;-55
2021/09/11 03:45:01;;;;;;;18.80;9.40;;;;;;;13.73;93.15;99898.34;5031423;28;20080;-59
2021/09/11 03:47:27;;;;;;;18.65;9.25;;;;;;;13.73;92.80;99895.72;5031161;28;20037;-59
2021/09/11 03:49:53;;;;;;;22.15;9.52;;;;;;;13.69;92.51;99895.00;5030380;28;20115;-60
2021/09/11 03:52:19;;;;;;;16.20;8.95;;;;;;;13.65;92.67;99909.13;5031898;28;20077;-60
2021/09/11 03:54:44;;;;;;;16.15;9.13;;;;;;;13.66;92.09;99913.41;5031728;28;20132;-59
2021/09/11 03:57:10;;;;;;;17.27;9.13;;;;;;;13.72;92.36;99912.31;5029494;28;20045;-58
2021/09/11 03:59:36;;;;;;;20.52;10.15;;;;;;;13.77;92.12;99916.41;5019704;28;20046;-56
2021/09/11 04:02:01;;;;;;;20.50;10.10;;;;;;;13.84;91.39;99910.03;5026708;28;20096;-58
2021/09/11 04:04:27;;;;;;;17.10;9.88;;;;;;;13.89;90.56;99905.44;5031024;28;20033;-51
2021/09/11 04:06:53;;;;;;;25.25;10.10;;;;;;;14.09;89.48;99919.38;5025291;28;20044;-55
2021/09/11 04:09:19;;;;;;;17.42;9.35;;;;;;;14.15;88.90;99917.34;5026112;28;20123;-48
2021/09/11 04:11:44;;;;;;;19.13;10.00;;;;;;;14.20;88.67;99909.28;5029410;28;20501;-55
2021/09/11 04:14:11;;;;;;;19.15;9.68;;;;;;;14.30;87.97;99916.63;5031164;28;20038;-56
2021/09/11 04:16:37;;;;;;;15.82;9.70;;;;;;;14.38;87.31;99913.72;5029700;28;20131;-57
2021/09/11 04:19:03;;;;;;;16.35;9.48;;;;;;;14.47;86.95;99915.06;5030104;28;20128;-54
2021/09/11 04:21:29;;;;;;;15.43;9.95;;;;;;;14.59;86.25;99917.94;5030954;28;20053;-59
2021/09/11 04:23:56;;;;;;;18.23;9.65;;;;;;;14.70;85.80;99914.84;5027605;28;20045;-59
2021/09/11 04:26:21;;;;;;;16.25;9.15;;;;;;;14.72;85.45;99905.13;5029154;28;20099;-57
2021/09/11 04:28:47;;;;;;;17.85;10.18;;;;;;;14.91;84.94;99912.94;5010237;28;20091;-56
2021/09/11 04:31:13;;;;;;;17.38;9.75;;;;;;;15.01;84.25;99917.66;5010615;28;20049;-56
2021/09/11 04:33:39;;;;;;;17.98;9.23;;;;;;;15.14;82.86;99920.53;5061905;28;20045;-58
2021/09/11 04:36:04;;;;;;;16.98;9.45;;;;;;;15.24;82.10;99913.91;5027622;28;20422;-58
2021/09/11 04:38:30;;;;;;;15.57;9.52;;;;;;;15.35;80.86;99908.13;5013518;28;20095;-57
2021/09/11 04:40:56;;;;;;;18.17;9.98;;;;;;;15.51;80.04;99909.94;5027713;28;20044;-54
2021/09/11 04:43:21;;;;;;;16.50;10.30;;;;;;;15.61;79.41;99905.06;5029790;28;20041;-52
2021/09/11 04:45:48;;;;;;;18.38;9.60;;;;;;;15.66;78.73;99901.28;5029715;28;20563;-54
2021/09/11 04:48:13;;;;;;;15.77;9.10;;;;;;;15.68;78.05;99894.19;5030598;28;20114;-53
2021/09/11 04:50:39;;;;;;;16.10;9.40;;;;;;;15.72;77.58;99889.63;5029873;28;20124;-50
2021/09/11 04:53:05;;;;;;;15.15;9.75;;;;;;;15.83;77.41;99891.69;5027614;28;20493;-52
2021/09/11 04:55:31;;;;;;;14.07;8.43;;;;;;;15.88;76.96;99889.69;5030247;28;20041;-50
2021/09/11 04:57:56;;;;;;;13.40;8.07;;;;;;;15.92;76.26;99894.69;5030823;28;20041;-53
2021/09/11 05:00:22;;;;;;;12.43;7.70;;;;;;;15.92;75.66;99878.09;5029502;28;20033;-51
2021/09/11 05:02:48;;;;;;;17.58;7.93;;;;;;;15.99;74.65;99882.94;5030484;28;20421;-54
2021/09/11 05:05:13;;;;;;;11.98;7.72;;;;;;;15.95;74.35;99876.19;5026370;28;20540;-55
2021/09/11 05:07:39;;;;;;;10.73;6.40;;;;;;;16.02;73.47;99895.03;5027728;28;20095;-57
2021/09/11 05:10:06;;;;;;;11.23;6.60;;;;;;;16.02;72.76;99887.16;5030535;28;20033;-55
2021/09/11 05:12:31;;;;;;;12.85;6.80;;;;;;;16.03;72.40;99881.00;5028974;28;20072;-56
2021/09/11 05:14:57;;;;;;;9.60;5.97;;;;;;;16.08;72.15;99886.84;5029631;28;20071;-56
2021/09/11 05:17:23;;;;;;;8.73;6.20;;;;;;;16.16;71.54;99883.81;5027075;28;20036;-58
2021/09/11 05:19:49;;;;;;;9.50;6.22;;;;;;;16.20;71.03;99875.69;5029339;28;20054;-54
2021/09/11 05:22:14;;;;;;;10.68;6.60;;;;;;;16.31;70.60;99882.97;5028185;28;20037;-52
2021/09/11 05:24:42;;;;;;;10.88;6.30;;;;;;;16.42;70.26;99876.22;5026974;28;20037;-53
2021/09/11 05:27:07;;;;;;;9.65;6.40;;;;;;;16.38;69.69;99881.72;5027629;28;20063;-56
2021/09/11 05:29:33;;;;;;;8.43;6.00;;;;;;;16.37;69.28;99867.75;5029984;28;20037;-52
2021/09/11 05:31:59;;;;;;;8.40;5.97;;;;;;;16.51;69.12;99874.84;5023783;28;20039;-68
2021/09/11 05:34:28;;;;;;;9.57;6.50;;;;;;;16.62;69.02;99876.91;5007999;28;20132;-61
2021/09/11 05:36:54;;;;;;;10.23;5.70;;;;;;;16.66;68.90;99871.41;5028097;28;20049;-62
2021/09/11 05:39:20;;;;;;;12.10;6.50;;;;;;;16.87;68.57;99878.06;5027895;28;20073;-59
2021/09/11 05:41:46;;;;;;;10.10;6.18;;;;;;;16.86;68.16;99881.63;5015909;28;20084;-63
2021/09/11 05:44:11;;;;;;;9.32;6.30;;;;;;;16.73;68.08;99878.00;5018831;28;20132;-60
2021/09/11 05:46:37;;;;;;;9.43;6.03;;;;;;;16.72;68.01;99886.81;5010796;28;20087;-62
2021/09/11 05:49:03;;;;;;;9.07;7.07;;;;;;;16.76;67.90;99882.22;5007498;28;20048;-59
2021/09/11 05:51:29;;;;;;;10.90;6.30;;;;;;;16.94;67.78;99892.56;5027532;28;20041;-56
2021/09/11 05:53:55;;;;;;;8.27;6.93;;;;;;;16.97;67.81;99880.16;5026685;28;20472;-57
2021/09/11 05:56:20;;;;;;;9.27;5.93;;;;;;;17.00;67.43;99885.25;5025364;28;20041;-61
2021/09/11 05:58:46;;;;;;;12.77;6.30;;;;;;;17.06;67.35;99890.97;5028245;28;20041;-59
2021/09/11 06:01:12;;;;;;;9.82;6.30;;;;;;;17.11;66.76;99891.59;5027590;28;20051;-62
2021/09/11 06:03:41;;;;;;;13.43;6.30;;;;;;;17.05;66.71;99876.19;5028063;28;20501;-63
2021/09/11 06:06:07;;;;;;;10.05;6.55;;;;;;;17.10;66.44;99886.41;5020386;28;20044;-61
2021/09/11 06:08:33;;;;;;;14.88;7.43;;;;;;;17.19;66.20;99891.97;5028858;28;20497;-62
2021/09/11 06:11:00;;;;;;;12.18;6.35;;;;;;;17.24;65.97;99891.72;5027086;28;20045;-62
2021/09/11 06:13:25;;;;;;;9.35;6.22;;;;;;;17.34;65.44;99895.50;5027985;28;20037;-63
2021/09/11 06:15:51;;;;;;;11.52;6.45;;;;;;;17.28;65.10;99872.19;5029681;28;20083;-63
2021/09/11 06:18:17;;;;;;;10.27;6.63;;;;;;;17.37;64.27;99890.06;5029241;28;20041;-63
2021/09/11 06:20:42;;;;;;;11.48;5.93;;;;;;;17.51;64.47;99886.63;5029687;28;20041;-62
2021/09/11 06:23:08;;;;;;;11.13;6.25;;;;;;;17.52;64.12;99890.94;5028460;28;20091;-60
2021/09/11 06:25:34;;;;;;;13.50;6.00;;;;;;;17.69;64.00;99894.28;5028374;28;20053;-62
2021/09/11 06:28:00;;;;;;;11.93;6.57;;;;;;;17.75;63.18;99887.78;5029386;28;20045;-62
2021/09/11 06:30:26;;;;;;;10.35;5.90;;;;;;;17.66;63.06;99883.94;5033047;28;20041;-64
2021/09/11 06:32:52;;;;;;;11.60;7.00;;;;;;;17.69;63.13;99889.00;5033759;28;20069;-62
2021/09/11 06:35:18;;;;;;;14.15;6.22;;;;;;;17.93;62.96;99897.22;5033395;28;20080;-62
2021/09/11 06:37:44;;;;;;;9.77;6.05;;;;;;;18.10;62.88;99899.66;5032368;28;20057;-62
2021/09/11 06:40:10;;;;;;;9.77;6.55;;;;;;;18.05;62.58;99893.00;5033560;28;20554;-62
2021/09/11 06:42:35;;;;;;;11.18;6.68;;;;;;;17.94;62.95;99887.53;5032575;28;20057;-64
2021/09/11 06:45:01;;;;;;;9.20;6.90;;;;;;;17.92;62.70;99895.50;5032246;28;20057;-64
2021/09/11 06:47:27;;;;;;;11.15;6.40;;;;;;;17.93;62.93;99886.69;5030551;28;20128;-63
2021/09/11 06:49:52;;;;;;;11.35;6.55;;;;;;;18.03;62.83;99890.44;5033083;28;20080;-64
2021/09/11 06:52:20;;;;;;;11.25;7.30;;;;;;;18.00;62.61;99889.78;5032008;28;20041;-63
2021/09/11 06:54:47;;;;;;;13.55;6.13;;;;;;;18.01;62.59;99881.78;5033070;28;20136;-63
2021/09/11 06:57:13;;;;;;;10.70;6.90;;;;;;;18.14;62.59;99888.00;5031352;28;20045;-65
2021/09/11 06:59:38;;;;;;;10.18;6.40;;;;;;;18.20;62.47;99890.25;5032403;28;20425;-64
2021/09/11 07:02:04;;;;;;;13.10;7.15;;;;;;;18.19;62.48;99898.22;5032998;28;20072;-64
2021/09/11 07:04:30;;;;;;;11.70;7.10;;;;;;;18.10;62.47;99894.41;5032066;28;20420;-62
2021/09/11 07:06:56;;;;;;;11.73;6.55;;;;;;;18.10;62.84;99893.56;5028368;28;20045;-63
2021/09/11 07:09:21;;;;;;;12.75;6.93;;;;;;;18.30;62.77;99892.31;5032307;28;20037;-64
2021/09/11 07:11:47;;;;;;;10.10;6.15;;;;;;;18.45;62.30;99881.66;5030246;28;20049;-63
2021/09/11 07:14:15;;;;;;;11.52;6.55;;;;;;;18.65;61.54;99896.22;5033130;28;20135;-64
2021/09/11 07:16:42;;;;;;;13.80;7.43;;;;;;;18.71;61.27;99887.91;5030594;28;20037;-65
2021/09/11 07:19:08;;;;;;;14.70;6.10;;;;;;;18.90;60.75;99896.31;5032210;28;20045;-63
2021/09/11 07:21:34;;;;;;;11.90;6.72;;;;;;;18.89;60.83;99886.72;5032446;28;20517;-63
2021/09/11 07:23:59;;;;;;;12.57;6.40;;;;;;;18.99;60.52;99864.09;5032208;28;20041;-62
2021/09/11 07:26:25;;;;;;;8.55;6.40;;;;;;;19.20;60.10;99884.72;5032200;28;20041;-63
2021/09/11 07:28:51;;;;;;;12.85;7.18;;;;;;;19.14;59.76;99885.13;5032466;28;20041;-64
2021/09/11 07:31:18;;;;;;;11.65;6.65;;;;;;;19.13;59.84;99881.63;5031482;28;20033;-61
2021/09/11 07:33:43;;;;;;;11.07;6.38;;;;;;;19.32;59.60;99879.44;5031385;28;20041;-63
2021/09/11 07:36:09;;;;;;;12.30;6.72;;;;;;;19.57;59.23;99881.31;5030792;28;20041;-63
2021/09/11 07:38:36;;;;;;;10.32;6.43;;;;;;;19.62;58.35;99888.91;5032058;28;20160;-63
2021/09/11 07:41:02;;;;;;;8.15;5.95;;;;;;;19.61;58.03;99882.78;5030610;28;20514;-61
2021/09/11 07:43:28;;;;;;;12.00;7.00;;;;;;;19.36;58.44;99859.84;5030812;28;20040;-62
2021/09/11 07:45:54;;;;;;;14.35;6.53;;;;;;;19.58;58.08;99880.34;5031022;28;20581;-62
2021/09/11 07:48:20;;;;;;;9.65;5.95;;;;;;;19.79;57.90;99886.78;5030763;28;20080;-62
2021/09/11 07:50:45;;;;;;;11.18;6.07;;;;;;;19.95;57.45;99883.94;5032259;28;20068;-62
2021/09/11 07:53:11;;;;;;;9.52;6.28;;;;;;;19.97;56.89;99875.91;5031893;28;20043;-64
2021/09/11 07:55:37;;;;;;;9.68;5.60;;;;;;;19.99;56.64;99877.53;5031949;28;20429;-62
2021/09/11 07:58:03;;;;;;;10.23;6.00;;;;;;;20.02;56.45;99877.28;5031997;28;20124;-62
2021/09/11 08:00:29;;;;;;;16.33;6.32;;;;;;;20.00;56.52;99873.91;5031848;28;20042;-62
2021/09/11 08:02:55;;;;;;;9.63;5.47;;;;;;;20.11;56.42;99871.34;5002550;28;20041;-62
2021/09/11 08:05:21;;;;;;;10.63;5.65;;;;;;;19.93;56.52;99858.63;5023501;28;20069;-62
2021/09/11 08:07:49;;;;;;;14.50;5.88;;;;;;;19.93;56.80;99867.38;5062797;28;20529;-61
2021/09/11 08:10:16;;;;;;;10.45;6.07;;;;;;;19.81;56.98;99874.34;5031640;28;20041;-62
2021/09/11 08:12:42;;;;;;;10.40;5.40;;;;;;;19.70;56.78;99854.94;5031774;28;20037;-62
2021/09/11 08:15:08;;;;;;;9.60;5.25;;;;;;;19.76;56.89;99867.69;5031205;28;20045;-62
2021/09/11 08:17:34;;;;;;;12.18;5.82;;;;;;;19.62;56.91;99865.19;5031206;28;20041;-62
2021/09/11 08:20:00;;;;;;;11.02;5.25;;;;;;;19.57;56.96;99843.56;5031004;28;20068;-62
2021/09/11 08:22:25;;;;;;;8.85;5.20;;;;;;;19.56;56.62;99855.91;5031574;28;20151;-63
2021/09/11 08:24:53;;;;;;;10.82;5.10;;;;;;;19.60;56.80;99860.00;5031430;28;20068;-63
2021/09/11 08:27:19;;;;;;;12.98;5.25;;;;;;;19.41;57.01;99851.63;5030923;28;20139;-62
2021/09/11 08:29:45;;;;;;;10.02;5.35;;;;;;;19.39;57.25;99848.25;5031084;28;20083;-62
2021/09/11 08:32:11;;;;;;;10.27;5.80;;;;;;;19.38;57.49;99841.28;5031108;28;20049;-63
2021/09/11 08:34:36;;;;;;;11.18;5.03;;;;;;;19.54;57.86;99849.03;5031286;28;20564;-62
2021/09/11 08:37:02;;;;;;;12.02;6.03;;;;;;;19.59;57.72;99842.47;5031152;28;20037;-63
2021/09/11 08:39:28;;;;;;;11.43;5.70;;;;;;;19.56;57.80;99836.59;5030596;28;20037;-62
2021/09/11 08:41:54;;;;;;;10.43;5.32;;;;;;;19.58;57.70;99848.69;5031257;28;20064;-61
2021/09/11 08:44:20;;;;;;;10.30;5.45;;;;;;;19.52;57.97;99853.56;5031214;28;20052;-62
2021/09/11 08:46:48;;;;;;;13.52;5.60;;;;;;;19.37;58.13;99850.97;5030928;28;20045;-61
2021/09/11 08:49:15;;;;;;;12.63;5.82;;;;;;;19.37;58.26;99853.63;5031164;28;20045;-62
2021/09/11 08:51:40;;;;;;;10.23;5.43;;;;;;;19.24;58.40;99846.66;5030573;28;20041;-61
2021/09/11 08:54:06;;;;;;;9.80;5.38;;;;;;;19.27;58.45;99854.34;5029709;28;20059;-62
2021/09/11 08:56:40;;;;;;;11.25;5.93;;;;;;;19.21;58.55;99852.94;5030941;28;20068;-62
2021/09/11 08:59:10;;;;;;;12.43;5.30;;;;;;;19.10;59.26;99852.84;5062957;28;20049;-62
2021/09/11 09:01:36;;;;;;;9.43;4.72;;;;;;;19.08;59.53;99845.97;5028930;28;20098;-61
2021/09/11 09:04:02;;;;;;;11.80;5.07;;;;;;;19.23;59.31;99844.94;5009397;28;20065;-61
2021/09/11 09:06:30;;;;;;;7.32;4.97;;;;;;;19.38;59.15;99838.63;5017411;28;20566;-62
2021/09/11 09:09:10;;;;;;;8.73;4.87;;;;;;;19.39;59.12;99846.47;5030625;28;20045;-62
2021/09/11 09:11:37;;;;;;;9.38;4.65;;;;;;;19.26;59.61;99847.41;5030139;28;20124;-60
2021/09/11 09:14:04;;;;;;;7.03;4.30;;;;;;;19.16;59.34;99841.88;5030583;28;20049;-61
2021/09/11 09:16:33;;;;;;;7.85;4.60;;;;;;;19.01;59.81;99841.13;5030466;28;20047;-62
2021/09/11 09:19:02;;;;;;;8.48;4.35;;;;;;;19.01;59.75;99843.75;5030169;28;20037;-62
2021/09/11 09:21:30;;;;;;;11.18;3.63;;;;;;;19.11;59.70;99840.50;5030270;28;20501;-62
2021/09/11 09:24:04;;;;;;;9.05;4.20;;;;;;;19.16;59.75;99830.47;5029492;28;20041;-62
2021/09/11 09:26:31;;;;;;;7.57;4.07;;;;;;;19.22;59.66;99833.56;5030339;28;20041;-62
2021/09/11 09:29:01;;;;;;;10.65;4.43;;;;;;;19.23;59.62;99831.78;5028981;28;20056;-61
2021/09/11 09:31:27;;;;;;;6.72;4.70;;;;;;;19.20;59.43;99826.72;5029067;28;20029;-62
2021/09/11 09:33:53;;;;;;;7.22;4.18;;;;;;;19.10;59.39;99823.00;5060969;28;20041;-63
2021/09/11 09:36:22;;;;;;;8.68;4.07;;;;;;;19.00;59.64;99826.25;5029537;28;20045;-62
2021/09/11 09:38:58;;;;;;;9.13;3.72;;;;;;;18.88;59.92;99800.72;5030004;28;20068;-62
2021/09/11 09:41:24;;;;;;;7.43;3.85;;;;;;;19.07;59.88;99817.94;5030012;28;20041;-62
2021/09/11 09:43:50;;;;;;;8.35;4.35;;;;;;;19.08;59.94;99809.94;5029958;28;20049;-62
2021/09/11 09:46:18;;;;;;;5.20;3.70;;;;;;;19.04;60.32;99808.47;5029761;28;20042;-61
2021/09/11 09:48:45;;;;;;;8.60;3.78;;;;;;;19.03;60.56;99810.25;5030022;28;20053;-60
2021/09/11 09:51:15;;;;;;;7.63;3.90;;;;;;;18.90;60.80;99790.91;5028080;28;20041;-62
2021/09/11 09:53:43;;;;;;;7.97;3.75;;;;;;;19.07;60.90;99799.47;5028661;28;20034;-62
2021/09/11 09:56:10;;;;;;;9.77;4.35;;;;;;;19.16;60.67;99797.06;5028529;28;20034;-61
2021/09/11 09:58:36;;;;;;;6.53;3.67;;;;;;;19.33;60.21;99790.66;5030025;28;20076;-62
2021/09/11 10:01:04;;;;;;;8.13;3.67;;;;;;;19.53;59.79;99790.16;5028620;28;20071;-62
2021/09/11 10:03:30;;;;;;;7.45;4.35;;;;;;;19.59;59.83;99788.88;5028627;28;20052;-61
2021/09/11 10:06:03;;;;;;;12.13;3.90;;;;;;;19.46;59.85;99778.34;5024964;28;20095;-62
2021/09/11 10:08:30;;;;;;;9.30;4.47;;;;;;;19.51;59.61;99783.31;5028619;28;20068;-61
2021/09/11 10:10:56;;;;;;;12.85;4.57;;;;;;;19.52;60.03;99783.22;5028316;28;20505;-61
2021/09/11 10:13:23;;;;;;;8.07;4.47;;;;;;;19.48;60.03;99787.00;5029816;28;20051;-63
2021/09/11 10:15:50;;;;;;;12.23;4.50;;;;;;;19.48;60.44;99780.88;5029138;28;20099;-62
2021/09/11 10:18:37;;;;;;;5.60;4.00;;;;;;;19.44;60.60;99780.22;5029819;28;20041;-61
2021/09/11 10:21:09;;;;;;;10.60;4.40;;;;;;;19.41;60.63;99778.66;5029599;28;20045;-62
2021/09/11 10:23:35;;;;;;;6.88;3.55;;;;;;;19.50;60.14;99773.69;5028523;28;20046;-61
2021/09/11 10:26:01;;;;;;;6.50;3.50;;;;;;;19.60;59.86;99769.47;5012066;28;20044;-62
2021/09/11 10:28:26;;;;;;;6.97;3.00;;;;;;;19.57;59.77;99775.81;5029701;28;20556;-62
2021/09/11 10:31:12;;;;;;;6.45;2.88;;;;;;;19.58;59.48;99769.56;5029211;28;20038;-62
2021/09/11 10:33:46;;;;;;;5.65;2.95;;;;;;;19.60;59.55;99770.31;5027952;28;20109;-61
2021/09/11 10:36:22;;;;;;;5.05;3.03;;;;;;;19.64;59.35;99766.50;5029757;28;20073;-62
2021/09/11 10:38:52;;;;;;;5.63;3.38;;;;;;;19.65;59.43;99760.28;5029536;28;20049;-62
2021/09/11 10:41:19;;;;;;;6.78;3.20;;;;;;;19.52;59.64;99743.66;5029530;28;20048;-63
2021/09/11 10:44:05;;;;;;;5.30;3.08;;;;;;;19.54;59.76;99744.38;5029057;28;20041;-63
2021/09/11 10:46:52;;;;;;;5.75;2.75;;;;;;;19.64;59.70;99757.75;5029259;28;20065;-62
2021/09/11 10:49:36;;;;;;;5.03;3.17;;;;;;;19.60;59.97;99764.19;5029369;28;20149;-61
2021/09/11 10:52:06;;;;;;;12.30;4.90;;;;;;;19.42;60.72;99759.22;5029367;28;20534;-62
2021/09/11 10:54:32;;;;;;;4.38;3.10;;;;;;;19.27;61.30;99748.88;5028214;28;21062;-62
2021/09/11 10:57:00;;;;;;;4.72;2.60;;;;;;;19.35;61.63;99757.13;5029016;28;20064;-63
2021/09/11 10:59:26;;;;;;;5.40;3.25;;;;;;;19.37;61.87;99757.84;5029472;28;20053;-63
2021/09/11 11:02:07;;;;;;;8.20;2.60;;;;;;;19.25;62.31;99748.16;5029552;28;20045;-64
2021/09/11 11:04:52;;;;;;;10.10;2.67;;;;;;;19.07;62.80;99747.63;5029468;28;20045;-63
2021/09/11 11:07:17;;;;;;;4.07;2.80;;;;;;;19.02;63.16;99737.41;5024065;28;20063;-62
2021/09/11 11:09:49;;;;;;;4.90;2.80;;;;;;;18.90;63.10;99725.03;5029364;28;20037;-62
2021/09/11 11:12:23;;;;;;;6.63;3.17;;;;;;;18.94;63.26;99730.97;5029514;28;20041;-61
2021/09/11 11:14:49;;;;;;;4.53;2.90;;;;;;;18.86;63.32;99713.03;5029571;28;20488;-61
2021/09/11 11:17:19;;;;;;;6.20;2.97;;;;;;;18.88;63.75;99721.69;5032948;28;20033;-65
2021/09/11 11:19:50;;;;;;;5.20;3.30;;;;;;;18.83;63.74;99720.31;5029395;28;20124;-63
2021/09/11 11:22:26;;;;;;;10.45;3.58;;;;;;;18.92;63.62;99717.91;5032555;28;20045;-63
2021/09/11 11:24:56;;;;;;;6.00;3.35;;;;;;;18.90;63.77;99703.97;5032576;28;20091;-60